createdAt,value
2023-12-30T00:00:24.854Z,93.90
2023-12-30T00:02:52.021Z,93.90
2023-12-30T00:05:18.855Z,93.90
2023-12-30T00:07:45.834Z,93.90
2023-12-30T00:10:12.954Z,93.90
2023-12-30T00:12:39.798Z,93.80
2023-12-30T00:15:07.279Z,93.80
2023-12-30T00:17:34.194Z,93.80
2023-12-30T00:20:01.173Z,93.90
2023-12-30T00:22:27.973Z,93.90
2023-12-30T00:24:54.764Z,93.90
2023-12-30T00:27:21.529Z,93.90
2023-12-30T00:29:50.767Z,93.90
2023-12-30T00:32:17.888Z,93.90
2023-12-30T00:34:44.717Z,93.90
2023-12-30T00:37:14.219Z,93.80
2023-12-30T00:39:41.912Z,93.90
2023-12-30T00:42:08.651Z,93.90
2023-12-30T00:44:35.512Z,93.90
2023-12-30T00:47:02.239Z,93.80
2023-12-30T00:49:29.006Z,93.80
2023-12-30T00:51:55.786Z,93.80
2023-12-30T00:54:22.553Z,93.80
2023-12-30T00:56:49.239Z,93.80
2023-12-30T00:59:16.062Z,93.80
2023-12-30T01:01:42.808Z,93.80
2023-12-30T01:04:09.784Z,93.90
2023-12-30T01:06:36.547Z,93.90
2023-12-30T01:09:03.916Z,93.90
2023-12-30T01:11:30.749Z,93.90
2023-12-30T01:13:57.562Z,93.90
2023-12-30T01:16:24.357Z,93.90
2023-12-30T01:18:51.378Z,93.90
2023-12-30T01:21:19.708Z,93.70
2023-12-30T01:23:46.408Z,93.60
2023-12-30T01:26:13.661Z,93.40
2023-12-30T01:28:40.486Z,93.50
2023-12-30T01:31:07.252Z,93.60
2023-12-30T01:33:34.194Z,93.80
2023-12-30T01:36:01.244Z,93.90
2023-12-30T01:38:28.135Z,93.90
2023-12-30T01:40:56.546Z,93.80
2023-12-30T01:43:24.886Z,93.70
2023-12-30T01:45:52.942Z,93.80
2023-12-30T01:48:21.030Z,93.40
2023-12-30T01:50:48.624Z,93.00
2023-12-30T01:53:16.577Z,92.50
2023-12-30T01:55:43.707Z,92.20
2023-12-30T01:58:10.607Z,92.10
2023-12-30T02:00:39.417Z,91.90
2023-12-30T02:03:06.212Z,91.70
2023-12-30T02:05:33.065Z,92.60
2023-12-30T02:08:00.234Z,93.40
2023-12-30T02:10:27.154Z,93.70
2023-12-30T02:12:53.869Z,93.70
2023-12-30T02:15:22.804Z,93.60
2023-12-30T02:17:53.022Z,93.50
2023-12-30T02:20:20.011Z,93.50
2023-12-30T02:22:47.083Z,93.40
2023-12-30T02:25:14.427Z,93.30
2023-12-30T02:27:44.641Z,93.20
2023-12-30T02:30:12.259Z,93.20
2023-12-30T02:32:39.081Z,93.20
2023-12-30T02:35:06.967Z,93.10
2023-12-30T02:37:33.800Z,93.00
2023-12-30T02:40:00.892Z,93.00
2023-12-30T02:42:27.750Z,93.00
2023-12-30T02:44:54.991Z,92.90
2023-12-30T02:47:23.345Z,93.00
2023-12-30T02:49:50.325Z,93.00
2023-12-30T02:52:17.130Z,93.00
2023-12-30T02:54:47.043Z,93.00
2023-12-30T02:57:13.873Z,93.00
2023-12-30T02:59:40.658Z,92.90
2023-12-30T03:02:07.612Z,92.90
2023-12-30T03:04:34.583Z,92.80
2023-12-30T03:07:01.405Z,92.80
2023-12-30T03:09:28.167Z,92.80
2023-12-30T03:11:55.020Z,92.80
2023-12-30T03:14:21.809Z,93.10
2023-12-30T03:16:48.641Z,92.70
2023-12-30T03:19:15.890Z,92.70
2023-12-30T03:21:42.631Z,92.70
2023-12-30T03:24:09.612Z,92.80
2023-12-30T03:26:36.639Z,92.80
2023-12-30T03:29:03.494Z,92.90
2023-12-30T03:31:30.599Z,92.90
2023-12-30T03:33:57.690Z,93.00
2023-12-30T03:36:24.602Z,93.00
2023-12-30T03:38:53.246Z,93.00
2023-12-30T03:41:20.139Z,93.10
2023-12-30T03:43:47.103Z,93.00
2023-12-30T03:46:14.162Z,93.10
2023-12-30T03:48:40.929Z,93.20
2023-12-30T03:51:08.064Z,93.20
2023-12-30T03:53:34.879Z,93.20
2023-12-30T03:56:01.928Z,93.20
2023-12-30T03:58:30.155Z,93.20
2023-12-30T04:00:57.055Z,93.20
2023-12-30T04:03:23.923Z,93.20
2023-12-30T04:05:50.686Z,93.20
2023-12-30T04:08:17.456Z,93.20
2023-12-30T04:10:44.332Z,93.20
2023-12-30T04:13:11.367Z,93.20
2023-12-30T04:15:38.641Z,93.30
2023-12-30T04:18:05.815Z,93.30
2023-12-30T04:20:32.993Z,93.20
2023-12-30T04:23:00.450Z,93.30
2023-12-30T04:25:27.562Z,93.30
2023-12-30T04:27:54.374Z,93.30
2023-12-30T04:30:21.311Z,93.30
2023-12-30T04:32:49.210Z,93.30
2023-12-30T04:35:16.050Z,93.30
2023-12-30T04:37:42.982Z,93.30
2023-12-30T04:40:10.074Z,93.30
2023-12-30T04:42:36.972Z,93.30
2023-12-30T04:45:05.257Z,93.30
2023-12-30T04:47:32.159Z,93.30
2023-12-30T04:49:59.124Z,93.40
2023-12-30T04:52:26.294Z,93.40
2023-12-30T04:54:53.025Z,93.40
2023-12-30T04:57:19.770Z,93.40
2023-12-30T04:59:46.612Z,93.40
2023-12-30T05:02:13.384Z,93.40
2023-12-30T05:04:42.285Z,93.40
2023-12-30T05:07:09.129Z,93.40
2023-12-30T05:09:36.760Z,93.40
2023-12-30T05:12:03.721Z,93.40
2023-12-30T05:14:30.485Z,93.50
2023-12-30T05:16:57.263Z,93.50
2023-12-30T05:19:24.067Z,93.60
2023-12-30T05:21:52.063Z,93.60
2023-12-30T05:24:18.828Z,93.60
2023-12-30T05:26:45.772Z,93.60
2023-12-30T05:29:12.485Z,93.50
2023-12-30T05:31:39.224Z,93.50
2023-12-30T05:34:08.175Z,93.50
2023-12-30T05:36:37.018Z,93.40
2023-12-30T05:39:04.785Z,93.40
2023-12-30T05:41:31.638Z,93.50
2023-12-30T05:43:58.538Z,93.40
2023-12-30T05:46:25.390Z,93.50
2023-12-30T05:48:52.334Z,93.50
2023-12-30T05:51:21.492Z,93.50
2023-12-30T05:53:48.487Z,93.50
2023-12-30T05:56:24.835Z,93.50
2023-12-30T05:58:53.098Z,93.50
2023-12-30T06:01:19.913Z,93.50
2023-12-30T06:03:46.736Z,93.40
2023-12-30T06:06:13.832Z,93.50
2023-12-30T06:08:40.744Z,93.50
2023-12-30T06:11:07.985Z,93.50
2023-12-30T06:13:35.846Z,93.50
2023-12-30T06:16:03.442Z,93.90
2023-12-30T06:18:32.730Z,93.50
2023-12-30T06:20:59.991Z,93.50
2023-12-30T06:23:32.264Z,93.50
2023-12-30T06:25:59.350Z,93.40
2023-12-30T06:28:27.170Z,93.40
2023-12-30T06:30:54.207Z,93.40
2023-12-30T06:33:22.007Z,93.40
2023-12-30T06:35:49.050Z,93.40
2023-12-30T06:38:16.051Z,93.40
2023-12-30T06:40:43.186Z,93.40
2023-12-30T06:43:10.260Z,93.40
2023-12-30T06:45:37.151Z,93.40
2023-12-30T06:48:04.361Z,93.30
2023-12-30T06:50:32.071Z,93.30
2023-12-30T06:53:02.173Z,93.40
2023-12-30T06:55:35.242Z,93.40
2023-12-30T06:58:10.179Z,93.40
2023-12-30T07:00:39.385Z,93.30
2023-12-30T07:03:06.602Z,93.30
2023-12-30T07:05:37.854Z,93.30
2023-12-30T07:08:05.312Z,93.30
2023-12-30T07:10:32.149Z,93.40
2023-12-30T07:12:59.047Z,93.40
2023-12-30T07:15:26.515Z,93.40
2023-12-30T07:17:53.432Z,93.40
2023-12-30T07:20:20.288Z,93.40
2023-12-30T07:22:47.166Z,93.40
2023-12-30T07:25:14.224Z,93.40
2023-12-30T07:27:41.149Z,93.40
2023-12-30T07:30:08.216Z,93.40
2023-12-30T07:32:35.961Z,93.40
2023-12-30T07:35:02.884Z,93.40
2023-12-30T07:37:30.386Z,93.40
2023-12-30T07:39:57.377Z,93.50
2023-12-30T07:42:24.545Z,93.50
2023-12-30T07:44:52.471Z,93.50
2023-12-30T07:47:19.693Z,93.50
2023-12-30T07:49:47.559Z,93.50
2023-12-30T07:52:14.558Z,93.50
2023-12-30T07:54:41.429Z,93.50
2023-12-30T07:57:08.265Z,93.60
2023-12-30T07:59:35.176Z,93.50
2023-12-30T08:02:02.043Z,93.50
2023-12-30T08:04:28.948Z,93.60
2023-12-30T08:06:56.728Z,93.60
2023-12-30T08:09:24.325Z,93.60
2023-12-30T08:11:59.216Z,93.60
2023-12-30T08:14:29.749Z,93.60
2023-12-30T08:16:57.028Z,93.60
2023-12-30T08:19:24.032Z,93.60
2023-12-30T08:21:51.110Z,93.70
2023-12-30T08:24:20.238Z,93.70
2023-12-30T08:26:47.095Z,93.70
2023-12-30T08:29:16.338Z,93.70
2023-12-30T08:31:47.296Z,93.80
2023-12-30T08:34:15.188Z,93.80
2023-12-30T08:36:43.273Z,93.90
2023-12-30T08:39:10.531Z,93.90
2023-12-30T08:41:38.100Z,93.90
2023-12-30T08:44:06.155Z,94.00
2023-12-30T08:46:33.332Z,94.00
2023-12-30T08:49:01.469Z,94.00
2023-12-30T08:51:30.697Z,94.00
2023-12-30T08:53:58.459Z,94.10
2023-12-30T08:56:25.480Z,94.10
2023-12-30T08:58:52.432Z,94.10
2023-12-30T09:01:19.669Z,94.20
2023-12-30T09:03:47.103Z,94.20
2023-12-30T09:06:14.137Z,94.20
2023-12-30T09:08:43.435Z,94.30
2023-12-30T09:11:19.805Z,94.30
2023-12-30T09:13:46.943Z,94.30
2023-12-30T09:16:14.318Z,94.30
2023-12-30T09:18:41.306Z,94.50
2023-12-30T09:21:08.263Z,94.40
2023-12-30T09:23:35.000Z,94.40
2023-12-30T09:26:01.805Z,94.50
2023-12-30T09:28:28.778Z,94.50
2023-12-30T09:30:55.836Z,94.50
2023-12-30T09:33:23.901Z,94.50
2023-12-30T09:35:55.842Z,94.60
2023-12-30T09:38:25.726Z,94.60
2023-12-30T09:40:54.002Z,94.60
2023-12-30T09:43:23.284Z,94.70
2023-12-30T09:45:51.123Z,94.60
2023-12-30T09:48:20.077Z,94.60
2023-12-30T09:50:52.039Z,94.70
2023-12-30T09:53:21.122Z,94.70
2023-12-30T09:55:48.233Z,94.70
2023-12-30T09:58:15.329Z,94.70
2023-12-30T10:00:43.734Z,94.80
2023-12-30T10:03:11.248Z,94.80
2023-12-30T10:05:38.314Z,94.80
2023-12-30T10:08:05.334Z,94.90
2023-12-30T10:10:42.418Z,94.80
2023-12-30T10:13:12.830Z,94.90
2023-12-30T10:15:40.868Z,94.90
2023-12-30T10:18:08.764Z,95.00
2023-12-30T10:20:39.562Z,95.00
2023-12-30T10:23:07.331Z,95.00
2023-12-30T10:25:34.734Z,95.00
2023-12-30T10:28:01.779Z,94.90
2023-12-30T10:30:31.735Z,94.90
2023-12-30T10:33:25.164Z,94.90
2023-12-30T10:35:52.144Z,95.00
2023-12-30T10:38:19.737Z,95.10
2023-12-30T10:40:46.718Z,95.10
2023-12-30T10:43:14.009Z,95.10
2023-12-30T10:45:41.791Z,95.20
2023-12-30T10:48:09.041Z,95.20
2023-12-30T10:50:40.177Z,95.20
2023-12-30T10:53:11.812Z,95.20
2023-12-30T10:55:41.251Z,95.20
2023-12-30T10:58:14.825Z,95.30
2023-12-30T11:00:43.245Z,95.30
2023-12-30T11:03:10.485Z,95.30
2023-12-30T11:05:41.579Z,95.40
2023-12-30T11:08:08.468Z,95.40
2023-12-30T11:10:35.431Z,95.40
2023-12-30T11:13:02.703Z,95.40
2023-12-30T11:15:30.791Z,95.40
2023-12-30T11:17:58.339Z,95.40
2023-12-30T11:20:26.278Z,95.40
2023-12-30T11:22:54.669Z,95.40
2023-12-30T11:25:21.876Z,95.50
2023-12-30T11:27:55.180Z,95.50
2023-12-30T11:30:25.444Z,95.50
2023-12-30T11:32:54.460Z,95.50
2023-12-30T11:35:22.827Z,95.50
2023-12-30T11:37:51.868Z,95.50
2023-12-30T11:40:19.857Z,95.50
2023-12-30T11:42:48.477Z,95.50
2023-12-30T11:45:15.759Z,95.50
2023-12-30T11:47:45.256Z,95.60
2023-12-30T11:50:13.408Z,95.60
2023-12-30T11:52:49.587Z,95.60
2023-12-30T11:55:17.097Z,95.60
2023-12-30T11:57:45.941Z,95.50
2023-12-30T12:00:14.314Z,95.50
2023-12-30T12:02:41.046Z,95.60
2023-12-30T12:05:08.621Z,95.60
2023-12-30T12:07:35.892Z,95.60
2023-12-30T12:10:03.020Z,95.60
2023-12-30T12:12:39.702Z,95.60
2023-12-30T12:15:08.592Z,95.60
2023-12-30T12:17:39.894Z,95.60
2023-12-30T12:20:14.274Z,95.70
2023-12-30T12:22:41.188Z,95.60
2023-12-30T12:25:08.757Z,95.70
2023-12-30T12:27:36.045Z,95.60
2023-12-30T12:30:02.781Z,95.70
2023-12-30T12:32:31.187Z,95.70
2023-12-30T12:34:59.873Z,95.70
2023-12-30T12:37:26.676Z,95.70
2023-12-30T12:39:54.077Z,95.70
2023-12-30T12:42:27.645Z,95.80
2023-12-30T12:44:57.913Z,95.70
2023-12-30T12:47:25.203Z,95.80
2023-12-30T12:49:52.375Z,95.80
2023-12-30T12:52:19.337Z,95.80
2023-12-30T12:54:46.204Z,95.80
2023-12-30T12:57:12.988Z,95.80
2023-12-30T12:59:40.240Z,95.90
2023-12-30T13:02:10.713Z,95.90
2023-12-30T13:04:38.017Z,95.90
2023-12-30T13:07:07.033Z,95.90
2023-12-30T13:09:47.863Z,95.90
2023-12-30T13:12:14.660Z,95.80
2023-12-30T13:14:42.517Z,95.80
2023-12-30T13:17:14.638Z,95.90
2023-12-30T13:19:41.706Z,95.90
2023-12-30T13:22:09.319Z,95.90
2023-12-30T13:24:38.595Z,95.90
2023-12-30T13:27:10.790Z,95.90
2023-12-30T13:29:38.023Z,95.90
2023-12-30T13:32:05.339Z,96.00
2023-12-30T13:34:33.088Z,96.00
2023-12-30T13:37:06.012Z,96.00
2023-12-30T13:39:35.156Z,96.00
2023-12-30T13:42:05.527Z,95.90
2023-12-30T13:44:38.609Z,95.90
2023-12-30T13:47:24.097Z,95.90
2023-12-30T13:50:12.453Z,95.90
2023-12-30T13:52:39.391Z,95.90
2023-12-30T13:55:15.263Z,95.90
2023-12-30T13:57:43.679Z,95.90
2023-12-30T14:00:11.508Z,95.90
2023-12-30T14:02:43.757Z,95.90
2023-12-30T14:05:18.832Z,96.00
2023-12-30T14:07:45.897Z,95.90
2023-12-30T14:10:17.993Z,95.90
2023-12-30T14:12:45.396Z,96.30
2023-12-30T14:15:14.489Z,95.90
2023-12-30T14:17:43.980Z,95.90
2023-12-30T14:20:14.478Z,95.90
2023-12-30T14:22:42.419Z,95.90
2023-12-30T14:25:12.656Z,95.90
2023-12-30T14:27:41.669Z,95.90
2023-12-30T14:30:12.896Z,95.90
2023-12-30T14:32:42.867Z,95.90
2023-12-30T14:35:10.731Z,95.90
2023-12-30T14:37:40.449Z,96.00
2023-12-30T14:40:07.970Z,96.00
2023-12-30T14:42:35.244Z,95.90
2023-12-30T14:45:02.005Z,95.90
2023-12-30T14:47:34.144Z,95.90
2023-12-30T14:50:05.990Z,95.90
2023-12-30T14:52:38.244Z,95.80
2023-12-30T14:55:11.169Z,95.80
2023-12-30T14:57:47.378Z,95.80
2023-12-30T15:00:15.448Z,95.80
2023-12-30T15:02:45.912Z,95.80
2023-12-30T15:05:16.115Z,95.70
2023-12-30T15:07:45.860Z,95.80
2023-12-30T15:10:15.563Z,95.70
2023-12-30T15:12:45.727Z,95.70
2023-12-30T15:15:15.720Z,95.70
2023-12-30T15:17:42.815Z,95.70
2023-12-30T15:20:10.597Z,95.60
2023-12-30T15:22:39.195Z,95.70
2023-12-30T15:25:07.099Z,95.60
2023-12-30T15:27:34.477Z,95.60
2023-12-30T15:30:01.540Z,95.60
2023-12-30T15:32:28.904Z,95.60
2023-12-30T15:34:58.245Z,95.60
2023-12-30T15:37:25.645Z,95.60
2023-12-30T15:39:52.747Z,95.50
2023-12-30T15:42:19.866Z,95.50
2023-12-30T15:44:46.739Z,95.50
2023-12-30T15:47:13.678Z,95.50
2023-12-30T15:49:41.617Z,95.50
2023-12-30T15:52:11.109Z,95.50
2023-12-30T15:54:41.335Z,95.50
2023-12-30T15:57:08.645Z,95.40
2023-12-30T15:59:36.115Z,95.40
2023-12-30T16:02:04.333Z,95.40
2023-12-30T16:04:31.491Z,95.50
2023-12-30T16:06:58.888Z,95.40
2023-12-30T16:09:25.898Z,95.40
2023-12-30T16:11:53.534Z,95.40
2023-12-30T16:14:20.881Z,95.30
2023-12-30T16:16:47.964Z,95.30
2023-12-30T16:19:16.583Z,95.30
2023-12-30T16:21:44.257Z,95.30
2023-12-30T16:24:12.191Z,95.40
2023-12-30T16:26:39.899Z,95.30
2023-12-30T16:29:07.469Z,95.30
2023-12-30T16:31:34.450Z,95.40
2023-12-30T16:34:01.636Z,95.30
2023-12-30T16:36:28.720Z,95.30
2023-12-30T16:38:57.205Z,95.30
2023-12-30T16:41:25.548Z,95.40
2023-12-30T16:43:52.718Z,95.40
2023-12-30T16:46:20.153Z,95.30
2023-12-30T16:48:48.708Z,95.30
2023-12-30T16:51:16.209Z,95.20
2023-12-30T16:53:43.804Z,95.20
2023-12-30T16:56:10.870Z,95.20
2023-12-30T16:58:38.415Z,95.20
2023-12-30T17:01:05.627Z,95.20
2023-12-30T17:03:32.739Z,95.20
2023-12-30T17:06:00.418Z,95.30
2023-12-30T17:08:27.489Z,95.30
2023-12-30T17:10:54.502Z,95.20
2023-12-30T17:13:27.264Z,95.20
2023-12-30T17:16:01.618Z,95.30
2023-12-30T17:18:28.703Z,95.30
2023-12-30T17:20:55.707Z,95.30
2023-12-30T17:23:22.612Z,95.30
2023-12-30T17:25:49.797Z,95.30
2023-12-30T17:28:16.807Z,95.20
2023-12-30T17:30:43.976Z,95.20
2023-12-30T17:33:12.696Z,95.20
2023-12-30T17:35:39.861Z,95.20
2023-12-30T17:38:07.048Z,95.30
2023-12-30T17:40:34.843Z,95.30
2023-12-30T17:43:02.101Z,95.20
2023-12-30T17:45:30.433Z,95.20
2023-12-30T17:47:57.414Z,95.20
2023-12-30T17:50:24.516Z,95.20
2023-12-30T17:52:51.537Z,95.30
2023-12-30T17:55:18.554Z,95.30
2023-12-30T17:57:45.616Z,95.30
2023-12-30T18:00:13.571Z,95.20
2023-12-30T18:02:40.536Z,95.20
2023-12-30T18:05:07.507Z,95.20
2023-12-30T18:07:34.427Z,95.20
2023-12-30T18:10:01.662Z,95.20
2023-12-30T18:12:28.846Z,95.20
2023-12-30T18:14:55.751Z,95.20
2023-12-30T18:17:23.509Z,95.30
2023-12-30T18:19:50.317Z,95.30
2023-12-30T18:22:17.072Z,95.30
2023-12-30T18:24:43.841Z,95.30
2023-12-30T18:27:10.524Z,95.30
2023-12-30T18:29:37.292Z,95.40
2023-12-30T18:32:04.364Z,95.40
2023-12-30T18:34:31.249Z,95.30
2023-12-30T18:36:57.962Z,95.30
2023-12-30T18:39:24.835Z,95.30
2023-12-30T18:41:51.883Z,95.30
2023-12-30T18:44:18.712Z,95.30
2023-12-30T18:46:45.455Z,95.30
2023-12-30T18:49:12.946Z,95.20
2023-12-30T18:51:39.950Z,95.20
2023-12-30T18:54:06.686Z,95.20
2023-12-30T18:56:33.861Z,95.20
2023-12-30T18:59:00.641Z,95.20
2023-12-30T19:01:27.444Z,95.20
2023-12-30T19:03:57.025Z,95.20
2023-12-30T19:06:24.267Z,95.20
2023-12-30T19:08:51.236Z,95.10
2023-12-30T19:11:19.994Z,95.10
2023-12-30T19:13:47.053Z,95.20
2023-12-30T19:16:13.911Z,95.60
2023-12-30T19:18:40.811Z,95.60
2023-12-30T19:21:07.617Z,95.20
2023-12-30T19:23:36.762Z,95.30
2023-12-30T19:26:03.636Z,95.30
2023-12-30T19:28:30.657Z,95.30
2023-12-30T19:30:57.612Z,95.30
2023-12-30T19:33:24.566Z,95.30
2023-12-30T19:35:51.577Z,95.30
2023-12-30T19:38:18.749Z,95.30
2023-12-30T19:40:46.992Z,95.20
2023-12-30T19:43:14.070Z,95.30
2023-12-30T19:45:40.937Z,95.30
2023-12-30T19:48:07.992Z,95.30
2023-12-30T19:50:35.273Z,95.30
2023-12-30T19:53:03.653Z,95.30
2023-12-30T19:55:30.619Z,95.30
2023-12-30T19:57:57.344Z,95.40
2023-12-30T20:00:25.326Z,95.30
2023-12-30T20:02:52.432Z,95.40
2023-12-30T20:05:19.204Z,95.40
2023-12-30T20:07:46.119Z,95.40
2023-12-30T20:10:14.234Z,95.40
2023-12-30T20:12:41.108Z,95.80
2023-12-30T20:15:10.821Z,95.40
2023-12-30T20:17:37.977Z,95.40
2023-12-30T20:20:07.175Z,95.40
2023-12-30T20:22:34.301Z,95.40
2023-12-30T20:25:01.131Z,95.50
2023-12-30T20:27:28.842Z,95.50
2023-12-30T20:32:23.322Z,95.50
2023-12-30T20:34:50.990Z,95.50
2023-12-30T20:37:21.865Z,95.50
2023-12-30T20:39:49.758Z,95.50
2023-12-30T20:42:18.645Z,95.50
2023-12-30T20:44:45.955Z,95.50
2023-12-30T20:47:13.629Z,95.50
2023-12-30T20:49:43.612Z,95.40
2023-12-30T20:52:10.388Z,95.40
2023-12-30T20:54:39.851Z,95.40
2023-12-30T20:57:06.566Z,95.40
2023-12-30T20:59:36.369Z,95.40
2023-12-30T21:02:03.447Z,95.40
2023-12-30T21:04:35.834Z,95.30
2023-12-30T21:07:02.703Z,95.30
2023-12-30T21:09:29.587Z,95.30
2023-12-30T21:11:56.776Z,95.40
2023-12-30T21:14:23.523Z,95.40
2023-12-30T21:16:50.776Z,95.40
2023-12-30T21:19:17.661Z,95.30
2023-12-30T21:21:44.477Z,95.30
2023-12-30T21:24:11.138Z,95.30
2023-12-30T21:26:38.134Z,95.30
2023-12-30T21:29:05.097Z,95.30
2023-12-30T21:31:31.950Z,95.30
2023-12-30T21:33:58.646Z,95.30
2023-12-30T21:36:25.888Z,95.30
2023-12-30T21:38:53.119Z,95.30
2023-12-30T21:41:23.554Z,95.30
2023-12-30T21:43:50.676Z,95.30
2023-12-30T21:46:17.595Z,95.30
2023-12-30T21:48:44.855Z,95.30
2023-12-30T21:51:12.700Z,95.30
2023-12-30T21:53:39.439Z,95.20
2023-12-30T21:56:06.401Z,95.20
2023-12-30T21:58:34.201Z,95.60
2023-12-30T22:01:02.421Z,95.20
2023-12-30T22:03:29.177Z,95.20
2023-12-30T22:05:56.156Z,95.20
2023-12-30T22:08:22.996Z,95.20
2023-12-30T22:10:49.707Z,95.20
2023-12-30T22:13:16.549Z,95.20
2023-12-30T22:15:43.269Z,95.20
2023-12-30T22:18:10.460Z,95.20
2023-12-30T22:20:37.246Z,95.30
2023-12-30T22:23:04.222Z,95.30
2023-12-30T22:25:31.076Z,95.30
2023-12-30T22:27:57.791Z,95.30
2023-12-30T22:30:24.659Z,95.30
2023-12-30T22:32:51.427Z,95.30
2023-12-30T22:35:18.374Z,95.30
2023-12-30T22:37:45.152Z,95.30
2023-12-30T22:40:12.376Z,95.20
2023-12-30T22:42:39.440Z,95.30
2023-12-30T22:45:06.694Z,95.30
2023-12-30T22:47:33.631Z,95.30
2023-12-30T22:50:00.449Z,95.30
2023-12-30T22:52:27.356Z,95.30
2023-12-30T22:54:54.068Z,95.30
2023-12-30T22:57:20.748Z,95.40
2023-12-30T22:59:47.411Z,95.40
2023-12-30T23:02:14.335Z,95.40
2023-12-30T23:04:41.113Z,95.40
2023-12-30T23:07:08.005Z,95.50
2023-12-30T23:09:34.721Z,95.50
2023-12-30T23:12:01.382Z,95.50
2023-12-30T23:14:28.093Z,95.50
2023-12-30T23:16:54.746Z,95.40
2023-12-30T23:19:21.576Z,95.50
2023-12-30T23:21:48.397Z,95.50
2023-12-30T23:24:15.156Z,95.50
2023-12-30T23:26:42.039Z,95.50
2023-12-30T23:29:08.820Z,95.50
2023-12-30T23:31:41.817Z,95.50
2023-12-30T23:34:11.693Z,95.50
2023-12-30T23:36:38.758Z,95.40
2023-12-30T23:39:06.279Z,95.40
2023-12-30T23:41:33.072Z,95.40
2023-12-30T23:43:59.985Z,95.40
2023-12-30T23:46:26.736Z,95.40
2023-12-30T23:48:53.701Z,95.40
2023-12-30T23:51:20.461Z,95.40
2023-12-30T23:53:47.274Z,95.40
2023-12-30T23:56:14.044Z,95.40
2023-12-30T23:58:41.196Z,95.40
